• Join FlightAware (Why Join?)
  • Login
  • US Flag 
04:22AM EDT


 

Airport Tracker/Info


-or-


 

Live Flight TrackerFlight Track Log ✈ AAL1459 ✈ 23-Apr-2013 ✈ KBOS - KORD

Flight Track Log - Related Links

Times and Time Zones

All times are in EDT time to prevent confusion due to time zone crossing. See the AAL1459 flight status page for this flight to view local times or setup timezone preferences in your user account.

Time Position Orientation Groundspeed Altitude Reporting Facility
EDT Latitude Longitude Course Direction KTS MPH feet Rate Location/Type
02:04PM 42.3780 -70.8830 78° East 236 272 3,900  Level FlightAware
02:05PM 42.3810 -70.8670 76° East 237 273 4,600 3,300 Climbing FlightAware
02:05PM 42.3900 -70.8220 75° East 249 287 6,100 2,520 Climbing FlightAware
02:05PM 42.4020 -70.8020 51° Northeast 254 292 6,500 1,380 Climbing FlightAware
02:06PM 42.4170 -70.7870 36° Northeast 260 299 6,800 1,800 Climbing FlightAware
02:06PM 42.4450 -70.7690 25° Northeast 284 327 7,700 2,160 Climbing FlightAware
02:06PM 42.4510 -70.7680 North 289 333 7,900 3,360 Climbing FlightAware
02:06PM 42.4850 -70.7790 347° North 296 341 9,400 2,760 Climbing FlightAware
02:07PM 42.5310 -70.8290 321° Northwest 340 391 10,900 2,220 Climbing FlightAware
02:08PM 42.5760 -70.9100 307° West 369 425 12,600 2,700 Climbing FlightAware
02:09PM 42.6180 -70.9830 308° West 368 423 14,800 3,120 Climbing FlightAware
02:09PM 42.6590 -71.0560 307° West 369 425 16,800 2,640 Climbing FlightAware
02:10PM 42.7060 -71.1410 307° West 380 437 18,600 2,400 Climbing FlightAware
02:11PM 42.7490 -71.2190 307° West 383 441 20,200 2,400 Climbing FlightAware
02:11PM 42.7820 -71.3030 298° West 378 435 21,800 1,920 Climbing FlightAware
02:12PM 42.7940 -71.4090 279° West 376 433 23,000 1,500 Climbing FlightAware
02:13PM 42.8030 -71.5020 278° West 378 435 24,000 1,620 Climbing FlightAware
02:13PM 42.8120 -71.5980 277° West 388 447 25,200 1,740 Climbing FlightAware
02:14PM 42.8230 -71.7070 278° West 398 458 26,500 1,740 Climbing FlightAware
02:15PM 42.8320 -71.8090 277° West 404 465 27,700 1,620 Climbing FlightAware
02:16PM 42.8430 -71.9170 278° West 410 472 28,800 1,620 Climbing FlightAware
02:16PM 42.8530 -72.0260 277° West 413 475 30,000 1,680 Climbing FlightAware
02:17PM 42.8620 -72.1290 277° West 414 476 31,100 1,380 Climbing FlightAware
02:18PM 42.8730 -72.2450 277° West 419 482 32,000 1,500 Climbing FlightAware
02:19PM 42.8860 -72.3890 277° West 412 474 33,600 1,740 Climbing FlightAware
02:19PM 42.8960 -72.5060 277° West 403 464 34,900 1,680 Climbing FlightAware
02:20PM 42.9040 -72.6040 276° West 392 451 36,000 1,620 Climbing FlightAware
02:21PM 42.9130 -72.7010 277° West 381 438 37,100 1,380 Climbing FlightAware
02:21PM 42.9220 -72.8060 277° West 376 433 38,000 600 Climbing FlightAware
02:22PM 42.9310 -72.9140 277° West 378 435 38,000  Level FlightAware
02:23PM 42.9390 -73.0060 277° West 381 438 38,000  Level FlightAware
02:23PM 42.9470 -73.1010 277° West 382 440 38,000  Level FlightAware
02:24PM 42.9540 -73.1960 276° West 383 441 38,000  Level FlightAware
02:25PM 42.9620 -73.2940 276° West 385 443 38,000  Level FlightAware
02:26PM 42.9700 -73.3910 276° West 386 444 38,000  Level FlightAware
02:26PM 42.9780 -73.4930 276° West 387 445 38,000  Level FlightAware
02:27PM 42.9850 -73.5720 277° West 388 447 38,000  Level FlightAware
02:28PM 42.9990 -73.7560 276° West 392 451 38,000  Level FlightAware
02:29PM 43.0060 -73.8550 276° West 394 453 38,000  Level FlightAware
02:29PM 43.0140 -73.9520 276° West 396 456 38,000  Level FlightAware
02:30PM 43.0220 -74.0620 276° West 398 458 38,000  Level FlightAware
02:31PM 43.0270 -74.1360 275° West 399 459 38,000  Level FlightAware
02:31PM 43.0370 -74.2660 276° West 400 460 38,000  Level FlightAware
02:33PM 43.0540 -74.5070 276° West 404 465 38,000  Level FlightAware
02:34PM 43.0640 -74.6470 276° West 408 470 38,000  Level FlightAware
02:35PM 43.0720 -74.7630 275° West 411 473 38,000  Level FlightAware
02:35PM 43.0790 -74.8660 275° West 412 474 38,000  Level FlightAware
02:36PM 43.0870 -74.9850 275° West 412 474 38,000  Level FlightAware
02:37PM 43.0930 -75.0850 275° West 413 475 38,000  Level FlightAware
02:37PM 43.1000 -75.1890 275° West 414 476 38,000  Level FlightAware
02:38PM 43.1070 -75.3070 275° West 416 479 38,000  Level FlightAware
02:39PM 43.1140 -75.4100 275° West 419 482 38,000  Level FlightAware
02:40PM 43.1210 -75.5200 275° West 422 486 38,000  Level FlightAware
02:40PM 43.1280 -75.6400 275° West 424 488 38,000  Level FlightAware
02:41PM 43.1340 -75.7490 274° West 426 490 38,000  Level FlightAware
02:42PM 43.1400 -75.8530 275° West 427 491 38,000  Level FlightAware
02:42PM 43.1480 -75.9760 275° West 425 489 38,000  Level FlightAware
02:43PM 43.1540 -76.0780 275° West 423 487 38,000  Level FlightAware
02:44PM 43.1600 -76.1980 274° West 414 476 38,000  Level FlightAware
02:44PM 43.1610 -76.3010 271° West 413 475 38,000  Level FlightAware
02:45PM 43.1610 -76.4110 270° West 415 478 38,000  Level FlightAware
02:46PM 43.1600 -76.5270 269° West 418 481 38,000  Level FlightAware
02:47PM 43.1600 -76.6310 270° West 419 482 38,000  Level FlightAware
02:47PM 43.1600 -76.7480 270° West 403 464 38,000  Level FlightAware
02:48PM 43.1590 -76.8520 269° West 401 461 38,000  Level FlightAware
02:49PM 43.1590 -76.9530 270° West 406 467 38,000 420 Level FlightAware
02:49PM 43.1580 -77.0690 269° West 410 472 38,600 960 Climbing FlightAware
02:50PM 43.1570 -77.1740 269° West 403 464 39,400 960 Climbing FlightAware
02:51PM 43.1560 -77.2850 269° West 398 458 40,000 420 Climbing FlightAware
02:51PM 43.1550 -77.3810 269° West 403 464 40,000  Level FlightAware
02:52PM 43.1540 -77.5030 269° West 409 471 40,000  Level FlightAware
02:53PM 43.1530 -77.6050 269° West 410 472 40,000  Level FlightAware
02:54PM 43.1520 -77.7100 269° West 408 470 40,000  Level FlightAware
02:54PM 43.1510 -77.8090 269° West 407 468 40,000  Level FlightAware
02:55PM 43.1490 -77.9300 269° West 408 470 40,000  Level FlightAware
02:56PM 43.1470 -78.0330 269° West 411 473 40,000  Level FlightAware
02:56PM 43.1450 -78.1490 269° West 411 473 40,000  Level FlightAware
02:57PM 43.1440 -78.2510 269° West 409 471 40,000  Level FlightAware
02:58PM 43.1420 -78.3690 269° West 406 467 40,000  Level FlightAware
02:58PM 43.1390 -78.4690 268° West 406 467 40,000  Level FlightAware
02:59PM 43.1360 -78.5740 268° West 405 466 40,000  Level FlightAware
03:00PM 43.1330 -78.6850 268° West 404 465 40,000  Level FlightAware
03:01PM 43.1300 -78.7910 268° West 403 464 40,000  Level FlightAware
03:01PM 43.1270 -78.8910 268° West 402 463 40,000  Level FlightAware
03:02PM 43.1240 -79.0030 268° West 404 465 40,000  Level FlightAware
03:03PM 43.1210 -79.1060 268° West 405 466 40,000  Level FlightAware
03:03PM 43.1170 -79.2220 267° West 402 463 40,000  Level FlightAware
03:04PM 43.1140 -79.3210 268° West 397 457 40,000  Level FlightAware
03:05PM 43.1150 -79.3960 271° West 396 456 40,000  Level FlightAware
03:05PM 43.1300 -79.4690 286° West 395 455 40,000  Level FlightAware
03:07PM 43.2790 -79.7050 311° West 392 451 40,000  Level FlightAware
03:08PM 43.3333 -79.8000 311° West 390 449 40,000 -240 Level Toronto Center
03:09PM 43.4167 -79.9167 315° West 390 449 39,600 -660 Descending Toronto Center
03:15PM 43.4860 -80.6190 315° West 332 382 36,000 -600 Descending FlightAware
03:15PM 43.4740 -80.7030 259° West 333 383 36,000  Level FlightAware
03:16PM 43.4590 -80.7980 258° West 347 399 36,000  Level FlightAware
03:17PM 43.4460 -80.8820 258° West 347 399 36,000  Level FlightAware
03:17PM 43.4310 -80.9810 258° West 347 399 36,000  Level FlightAware
03:18PM 43.4180 -81.0650 258° West 347 399 36,000  Level FlightAware
03:19PM 43.4050 -81.1500 258° West 348 400 36,000  Level FlightAware
03:19PM 43.3890 -81.2510 258° West 348 400 36,000  Level FlightAware
03:20PM 43.3750 -81.3360 257° West 348 400 36,000  Level FlightAware
03:21PM 43.3600 -81.4320 258° West 348 400 36,000  Level FlightAware
03:22PM 43.3440 -81.5310 258° West 349 402 36,000  Level FlightAware
03:22PM 43.3310 -81.6160 258° West 350 403 36,000  Level FlightAware
03:23PM 43.3150 -81.7170 258° West 350 403 36,000  Level FlightAware
03:24PM 43.3020 -81.7960 257° West 350 403 36,000  Level FlightAware
03:24PM 43.2900 -81.8700 257° West 350 403 36,000  Level FlightAware
03:25PM 43.2760 -81.9570 258° West 349 402 36,000  Level FlightAware
03:26PM 43.2560 -82.0760 257° West 348 400 36,000  Level FlightAware
03:27PM 43.2390 -82.1760 257° West 348 400 36,000  Level FlightAware
03:27PM 43.2260 -82.2550 257° West 348 400 36,000  Level FlightAware
03:28PM 43.2090 -82.3600 258° West 348 400 36,000  Level FlightAware
03:29PM 43.1910 -82.4630 257° West 350 403 36,000  Level FlightAware
03:30PM 43.1730 -82.5720 257° West 351 404 36,000  Level FlightAware
03:30PM 43.1630 -82.6560 261° West 351 404 36,000  Level FlightAware
03:31PM 43.1490 -82.7560 259° West 351 404 36,000  Level FlightAware
03:32PM 43.1390 -82.8290 259° West 351 404 36,000  Level FlightAware
03:33PM 43.1250 -82.9330 260° West 351 404 36,000  Level FlightAware
03:33PM 43.1140 -83.0070 259° West 351 404 36,000  Level FlightAware
03:34PM 43.0990 -83.1190 260° West 350 403 36,000  Level FlightAware
03:35PM 43.0890 -83.1910 259° West 350 403 36,000  Level FlightAware
03:35PM 43.0750 -83.2900 259° West 349 402 36,000  Level FlightAware
03:36PM 43.0620 -83.3800 259° West 349 402 36,000  Level FlightAware
03:37PM 43.0470 -83.4860 259° West 349 402 36,000  Level FlightAware
03:37PM 43.0350 -83.5680 259° West 349 402 36,000  Level FlightAware
03:38PM 43.0240 -83.6480 259° West 349 402 36,000  Level FlightAware
03:39PM 43.0090 -83.7470 258° West 350 403 36,000  Level FlightAware
03:40PM 42.9950 -83.8430 259° West 349 402 36,000 -120 Level FlightAware
03:40PM 42.9830 -83.9240 259° West 349 402 35,900 -720 Descending FlightAware
03:41PM 42.9660 -84.0390 259° West 352 405 35,000 -1,080 Descending FlightAware
03:42PM 42.9530 -84.1280 259° West 357 411 34,400 -960 Descending FlightAware
03:42PM 42.9380 -84.2280 258° West 363 418 33,700 -1,020 Descending FlightAware
03:43PM 42.9250 -84.3160 259° West 366 421 33,000 -1,020 Descending FlightAware
03:44PM 42.9090 -84.4180 258° West 368 423 32,300 -720 Descending FlightAware
03:44PM 42.8950 -84.5090 258° West 352 405 32,000 -240 Descending FlightAware
03:45PM 42.8830 -84.5920 259° West 320 368 32,000  Level FlightAware
03:46PM 42.8740 -84.6810 262° West 316 364 32,000  Level FlightAware
03:47PM 42.8660 -84.7570 262° West 315 362 32,000  Level FlightAware
03:47PM 42.8580 -84.8350 262° West 316 364 32,000  Level FlightAware
03:48PM 42.8490 -84.9260 262° West 318 366 32,000  Level FlightAware
03:49PM 42.8400 -85.0060 261° West 320 368 32,000  Level FlightAware
03:49PM 42.8300 -85.0970 262° West 321 369 32,000  Level FlightAware
03:50PM 42.8220 -85.1770 262° West 324 373 32,000 -900 Level FlightAware
03:51PM 42.8130 -85.2570 261° West 318 366 30,800 -1,860 Descending FlightAware
03:51PM 42.8030 -85.3440 261° West 311 358 29,400 -1,860 Descending FlightAware
03:52PM 42.7950 -85.4200 262° West 312 359 28,200 -1,800 Descending FlightAware
03:53PM 42.7850 -85.5070 261° West 314 361 26,900 -1,860 Descending FlightAware
03:54PM 42.7710 -85.5880 257° West 317 365 25,600 -1,800 Descending FlightAware
03:54PM 42.7580 -85.6600 256° West 315 362 24,500 -1,800 Descending FlightAware
03:55PM 42.7420 -85.7470 256° West 311 358 23,100 -1,860 Descending FlightAware
03:56PM 42.7280 -85.8250 256° West 308 354 21,900 -1,680 Descending FlightAware
03:56PM 42.7130 -85.9060 256° West 299 344 20,800 -1,380 Descending FlightAware
03:57PM 42.7000 -85.9770 256° West 289 333 20,000 -600 Descending FlightAware
03:58PM 42.6870 -86.0490 256° West 287 330 20,000  Level FlightAware
03:58PM 42.6730 -86.1270 256° West 287 330 20,000  Level FlightAware
03:59PM 42.6590 -86.1990 255° West 289 333 20,000 -540 Level FlightAware
04:00PM 42.6450 -86.2790 257° West 290 334 19,300 -1,320 Descending FlightAware
04:01PM 42.6320 -86.3470 255° West 285 328 18,200 -1,620 Descending FlightAware
04:01PM 42.6190 -86.4150 255° West 279 321 17,200 -1,560 Descending FlightAware
04:02PM 42.6050 -86.4910 256° West 273 314 16,000 -1,500 Descending FlightAware
04:03PM 42.5940 -86.5500 256° West 268 308 15,200 -1,320 Descending FlightAware
04:03PM 42.5830 -86.6210 258° West 268 308 14,300 -1,380 Descending FlightAware
04:04PM 42.5870 -86.6960 274° West 265 305 13,200 -1,620 Descending FlightAware
04:05PM 42.5900 -86.7540 274° West 262 302 12,200 -1,320 Descending FlightAware
04:05PM 42.5850 -86.7850 258° West 251 289 12,000 -240 Descending FlightAware
04:06PM 42.5660 -86.8460 247° West 243 280 12,000 -660 Level FlightAware
04:06PM 42.5450 -86.9030 243° Southwest 246 283 11,100 -1,140 Descending FlightAware
04:07PM 42.5250 -86.9600 245° Southwest 248 285 10,500 -960 Descending FlightAware
04:08PM 42.5040 -87.0210 245° Southwest 245 282 9,800 -960 Descending FlightAware
04:08PM 42.4910 -87.0590 245° Southwest 243 280 9,400 -900 Descending FlightAware
04:09PM 42.4770 -87.0980 244° Southwest 240 276 9,000 -540 Descending FlightAware
04:09PM 42.4700 -87.1190 246° West 238 274 9,000  Level FlightAware
04:09PM 42.4580 -87.1520 244° Southwest 237 273 9,000  Level FlightAware
04:10PM 42.4430 -87.1930 244° Southwest 237 273 9,000  Level FlightAware
04:10PM 42.4380 -87.2090 247° West 238 274 9,000 -180 Level FlightAware
04:11PM 42.4240 -87.2480 244° Southwest 239 275 8,900 -1,140 Descending FlightAware
04:11PM 42.4100 -87.2860 243° Southwest 247 284 8,000 -1,920 Descending FlightAware
04:11PM 42.4030 -87.3070 246° West 250 288 7,500 -1,680 Descending FlightAware
04:12PM 42.3910 -87.3450 247° West 248 285 6,900 -1,500 Descending FlightAware
04:12PM 42.3850 -87.3670 250° West 249 287 6,500 -1,200 Descending FlightAware
04:12PM 42.3730 -87.4110 250° West 245 282 6,000 -720 Descending FlightAware
04:13PM 42.3670 -87.4310 248° West 244 281 6,000  Level FlightAware
04:13PM 42.3580 -87.4650 250° West 245 282 6,000  Level FlightAware
04:14PM 42.3390 -87.5030 236° Southwest 244 281 6,000  Level FlightAware
04:14PM 42.3300 -87.5090 206° Southwest 247 284 6,000  Level FlightAware
04:14PM 42.2930 -87.5060 177° South 254 292 6,000  Level FlightAware
04:15PM 42.2580 -87.4990 172° South 253 291 6,000  Level FlightAware
04:15PM 42.2440 -87.4960 171° South 253 291 6,000 -780 Level FlightAware
04:15PM 42.2130 -87.4800 159° South 263 303 5,500 -1,200 Descending FlightAware
04:16PM 42.1870 -87.4610 152° Southeast 261 300 5,000 -1,320 Descending FlightAware
04:16PM 42.1600 -87.4410 151° Southeast 259 298 4,400 -1,140 Descending FlightAware
04:17PM 42.1280 -87.4190 153° Southeast 254 292 4,000 -600 Descending FlightAware
04:17PM 42.1180 -87.4120 153° Southeast 253 291 4,000  Level FlightAware
04:17PM 42.0850 -87.4000 165° South 225 259 4,000  Level FlightAware
04:18PM 42.0720 -87.3980 173° South 216 249 4,000  Level FlightAware
04:18PM 42.0460 -87.3940 173° South 212 244 4,000  Level FlightAware
04:18PM 42.0290 -87.3910 173° South 213 245 4,000  Level FlightAware
04:19PM 42.0080 -87.4040 205° Southwest 205 236 4,000  Level FlightAware
04:19PM 42.0050 -87.4210 257° West 203 234 4,000  Level FlightAware
04:20PM 42.0020 -87.4550 263° West 205 236 4,000  Level FlightAware
04:20PM 42.0020 -87.4770 270° West 199 229 4,000  Level FlightAware
04:20PM 42.0020 -87.5180 270° West 177 204 4,000  Level FlightAware
04:21PM 42.0030 -87.5460 273° West 178 205 4,000  Level FlightAware
04:21PM 42.0030 -87.5840 270° West 176 203 4,000  Level FlightAware
04:22PM 42.0020 -87.6010 265° West 174 200 4,000  Level FlightAware
04:22PM 42.0030 -87.6310 273° West 177 204 4,000  Level FlightAware
04:23PM 42.0030 -87.6590 270° West 175 201 4,000 -180 Level FlightAware
04:23PM 42.0030 -87.6790 270° West 178 205 3,900 -720 Descending FlightAware
04:23PM 42.0030 -87.7050 270° West 182 209 3,500 -900 Descending FlightAware
04:24PM 42.0030 -87.7210 270° West 182 209 3,300 -960 Descending FlightAware
04:24PM 42.0030 -87.7580 270° West 181 208 2,800 -960 Descending FlightAware
04:24PM 42.0030 -87.7800 270° West 178 205 2,500 -960 Descending FlightAware
04:25PM 42.0030 -87.8040 270° West 159 183 2,100 -840 Descending FlightAware
04:25PM 42.0030 -87.8260 270° West 135 155 1,800 -720 Descending FlightAware
04:26PM 42.0030 -87.8480 270° West 134 154 1,500 -840 Descending FlightAware
04:26PM 42.0030 -87.8640 270° West 134 154 1,200 -840 Descending FlightAware
04:26PM 42.0030 -87.8850 270° West 134 154 900 -600 Descending FlightAware
04:27PM 42.0030 -87.8970 270° West 139 160 800 -420 Descending FlightAware